createdAt,value
2018-02-13T00:02:20.139Z,30.63
2018-02-13T00:04:47.570Z,30.58
2018-02-13T00:07:15.048Z,30.72
2018-02-13T00:09:42.777Z,30.74
2018-02-13T00:12:10.271Z,30.71
2018-02-13T00:14:37.883Z,30.65
2018-02-13T00:17:05.414Z,30.73
2018-02-13T00:19:32.788Z,30.74
2018-02-13T00:22:00.159Z,30.68
2018-02-13T00:24:27.548Z,30.77
2018-02-13T00:26:54.912Z,30.54
2018-02-13T00:29:22.426Z,30.75
2018-02-13T00:31:49.914Z,30.66
2018-02-13T00:34:17.671Z,30.75
2018-02-13T00:36:45.150Z,30.74
2018-02-13T00:39:12.664Z,30.63
2018-02-13T00:41:40.040Z,30.54
2018-02-13T00:44:07.568Z,30.49
2018-02-13T00:46:34.985Z,30.67
2018-02-13T00:49:02.355Z,30.67
2018-02-13T00:51:29.828Z,30.67
2018-02-13T00:53:57.246Z,30.64
2018-02-13T00:56:24.732Z,30.66
2018-02-13T00:58:52.091Z,30.70
2018-02-13T01:01:19.538Z,30.77
2018-02-13T01:03:46.962Z,30.66
2018-02-13T01:06:14.376Z,30.67
2018-02-13T01:08:41.771Z,30.74
2018-02-13T01:11:09.239Z,30.71
2018-02-13T01:13:36.647Z,30.77
2018-02-13T01:16:04.058Z,30.68
2018-02-13T01:18:31.508Z,31.00
2018-02-13T01:20:59.138Z,30.63
2018-02-13T01:23:26.519Z,30.74
2018-02-13T01:25:53.925Z,30.87
2018-02-13T01:28:21.404Z,30.75
2018-02-13T01:30:48.836Z,30.85
2018-02-13T01:33:16.214Z,30.84
2018-02-13T01:35:43.647Z,30.83
2018-02-13T01:38:11.066Z,30.68
2018-02-13T01:40:38.583Z,30.69
2018-02-13T01:43:05.965Z,30.78
2018-02-13T01:45:33.423Z,30.88
2018-02-13T01:48:00.924Z,30.74
2018-02-13T01:50:28.300Z,30.82
2018-02-13T01:52:55.683Z,30.85
2018-02-13T01:55:23.049Z,30.91
2018-02-13T01:57:50.524Z,30.82
2018-02-13T02:00:18.347Z,30.83
2018-02-13T02:02:45.712Z,30.19
2018-02-13T02:05:13.341Z,30.06
2018-02-13T02:07:40.793Z,30.38
2018-02-13T02:10:08.161Z,30.60
2018-02-13T02:12:35.562Z,30.62
2018-02-13T02:15:02.960Z,30.75
2018-02-13T02:17:30.384Z,30.62
2018-02-13T02:19:57.819Z,30.85
2018-02-13T02:22:25.217Z,30.62
2018-02-13T02:24:52.572Z,30.46
2018-02-13T02:27:20.139Z,30.66
2018-02-13T02:29:47.948Z,30.54
2018-02-13T02:32:15.396Z,30.55
2018-02-13T02:34:42.986Z,30.66
2018-02-13T02:37:10.411Z,30.59
2018-02-13T02:39:37.766Z,30.28
2018-02-13T02:42:05.145Z,30.15
2018-02-13T02:44:32.671Z,30.26
2018-02-13T02:47:00.067Z,30.09
2018-02-13T02:49:27.489Z,30.26
2018-02-13T02:51:54.938Z,30.23
2018-02-13T02:54:22.424Z,30.35
2018-02-13T02:56:50.048Z,30.11
2018-02-13T02:59:17.567Z,30.14
2018-02-13T03:01:45.052Z,30.19
2018-02-13T03:04:12.509Z,29.93
2018-02-13T03:06:39.987Z,29.93
2018-02-13T03:09:07.373Z,29.88
2018-02-13T03:11:34.919Z,29.83
2018-02-13T03:14:02.333Z,29.92
2018-02-13T03:16:29.712Z,30.12
2018-02-13T03:18:57.098Z,30.10
2018-02-13T03:21:24.449Z,30.04
2018-02-13T03:23:51.989Z,30.06
2018-02-13T03:26:19.473Z,29.93
2018-02-13T03:28:47.189Z,29.95
2018-02-13T03:31:14.648Z,29.87
2018-02-13T03:33:42.017Z,29.75
2018-02-13T03:36:09.621Z,29.63
2018-02-13T03:38:37.020Z,29.74
2018-02-13T03:41:04.423Z,29.90
2018-02-13T03:43:31.800Z,29.93
2018-02-13T03:45:59.217Z,29.95
2018-02-13T03:48:26.562Z,29.94
2018-02-13T03:50:54.063Z,29.87
2018-02-13T03:53:21.546Z,29.83
2018-02-13T03:55:48.958Z,29.71
2018-02-13T03:58:16.441Z,29.52
2018-02-13T04:00:43.879Z,29.48
2018-02-13T04:03:11.303Z,29.59
2018-02-13T04:05:38.715Z,29.67
2018-02-13T04:08:06.185Z,29.95
2018-02-13T04:10:33.890Z,29.77
2018-02-13T04:15:34.633Z,29.76
2018-02-13T04:18:02.050Z,29.69
2018-02-13T04:20:29.417Z,29.50
2018-02-13T04:22:56.812Z,29.52
2018-02-13T04:25:24.196Z,29.50
2018-02-13T04:27:51.677Z,29.94
2018-02-13T04:30:19.410Z,29.76
2018-02-13T04:32:46.808Z,29.56
2018-02-13T04:35:15.224Z,29.38
2018-02-13T04:37:42.615Z,29.48
2018-02-13T04:40:10.362Z,29.37
2018-02-13T04:42:37.767Z,29.33
2018-02-13T04:45:05.302Z,29.20
2018-02-13T04:47:32.707Z,29.23
2018-02-13T04:50:00.485Z,29.24
2018-02-13T04:52:28.122Z,29.28
2018-02-13T04:54:55.544Z,29.38
2018-02-13T04:57:23.069Z,29.24
2018-02-13T04:59:50.431Z,29.41
2018-02-13T05:02:17.863Z,29.28
2018-02-13T05:04:45.255Z,29.22
2018-02-13T05:07:12.662Z,29.05
2018-02-13T05:09:40.094Z,29.14
2018-02-13T05:12:07.465Z,29.20
2018-02-13T05:14:35.014Z,29.08
2018-02-13T05:17:02.574Z,29.13
2018-02-13T05:19:30.297Z,29.43
2018-02-13T05:21:57.656Z,29.46
2018-02-13T05:24:25.048Z,29.37
2018-02-13T05:26:52.405Z,29.32
2018-02-13T05:29:19.858Z,29.21
2018-02-13T05:31:47.366Z,29.11
2018-02-13T05:34:14.767Z,29.20
2018-02-13T05:36:42.174Z,29.05
2018-02-13T05:39:09.557Z,29.06
2018-02-13T05:41:36.938Z,28.98
2018-02-13T05:44:04.337Z,28.97
2018-02-13T05:46:31.706Z,28.81
2018-02-13T05:48:59.085Z,28.75
2018-02-13T05:51:26.578Z,28.47
2018-02-13T05:53:54.088Z,28.42
2018-02-13T05:56:21.649Z,28.49
2018-02-13T05:58:49.148Z,28.36
2018-02-13T06:01:16.548Z,28.37
2018-02-13T06:03:43.949Z,28.45
2018-02-13T06:06:11.465Z,28.62
2018-02-13T06:08:38.887Z,28.71
2018-02-13T06:11:06.321Z,28.75
2018-02-13T06:13:33.687Z,28.86
2018-02-13T06:16:01.047Z,28.86
2018-02-13T06:18:28.605Z,28.53
2018-02-13T06:20:56.026Z,28.56
2018-02-13T06:23:23.468Z,28.43
2018-02-13T06:25:50.908Z,28.64
2018-02-13T06:28:18.373Z,28.85
2018-02-13T06:30:45.880Z,29.09
2018-02-13T06:33:13.298Z,29.22
2018-02-13T06:35:40.783Z,28.99
2018-02-13T06:38:08.262Z,29.03
2018-02-13T06:40:35.676Z,28.89
2018-02-13T06:43:03.133Z,29.12
2018-02-13T06:45:30.531Z,29.36
2018-02-13T06:47:58.111Z,29.42
2018-02-13T06:50:25.579Z,29.57
2018-02-13T06:52:52.987Z,29.56
2018-02-13T06:55:20.489Z,29.20
2018-02-13T06:57:47.983Z,28.61
2018-02-13T07:00:15.381Z,29.08
2018-02-13T07:02:42.803Z,28.98
2018-02-13T07:05:10.491Z,28.83
2018-02-13T07:07:39.285Z,28.95
2018-02-13T07:10:06.686Z,29.09
2018-02-13T07:12:35.353Z,29.97
2018-02-13T07:15:02.862Z,29.51
2018-02-13T07:17:30.313Z,29.33
2018-02-13T07:19:57.711Z,28.90
2018-02-13T07:22:25.422Z,28.82
2018-02-13T07:24:53.140Z,28.38
2018-02-13T07:27:22.927Z,29.31
2018-02-13T07:29:50.432Z,28.84
2018-02-13T07:32:18.051Z,28.91
2018-02-13T07:34:45.546Z,29.24
2018-02-13T07:37:13.139Z,29.19
2018-02-13T07:39:40.764Z,29.86
2018-02-13T07:42:08.234Z,28.72
2018-02-13T07:44:36.232Z,28.37
2018-02-13T07:47:03.728Z,29.04
2018-02-13T07:49:31.210Z,28.33
2018-02-13T07:51:58.850Z,28.52
2018-02-13T07:54:26.728Z,28.63
2018-02-13T07:56:54.388Z,28.63
2018-02-13T07:59:22.224Z,28.55
2018-02-13T08:01:50.022Z,28.60
2018-02-13T08:04:17.806Z,28.49
2018-02-13T08:06:45.549Z,28.64
2018-02-13T08:09:13.055Z,28.68
2018-02-13T08:11:40.519Z,28.48
2018-02-13T08:14:08.014Z,28.56
2018-02-13T08:16:35.568Z,28.43
2018-02-13T08:19:03.576Z,28.12
2018-02-13T08:21:31.191Z,28.06
2018-02-13T08:23:58.707Z,28.17
2018-02-13T08:26:26.349Z,27.87
2018-02-13T08:28:55.953Z,27.95
2018-02-13T08:31:23.548Z,27.82
2018-02-13T08:33:51.844Z,27.75
2018-02-13T08:36:22.342Z,27.75
2018-02-13T08:38:53.627Z,27.99
2018-02-13T08:41:23.436Z,28.10
2018-02-13T08:43:51.086Z,28.13
2018-02-13T08:46:22.549Z,27.92
2018-02-13T08:48:52.829Z,27.61
2018-02-13T08:51:24.309Z,27.81
2018-02-13T08:53:52.023Z,27.71
2018-02-13T08:56:19.476Z,27.71
2018-02-13T08:58:52.911Z,27.48
2018-02-13T09:01:20.742Z,27.79
2018-02-13T09:03:48.439Z,28.08
2018-02-13T09:06:24.865Z,28.11
2018-02-13T09:08:54.635Z,28.08
2018-02-13T09:11:22.248Z,28.13
2018-02-13T09:13:50.985Z,27.98
2018-02-13T09:16:20.715Z,28.14
2018-02-13T09:18:51.962Z,28.17
2018-02-13T09:21:20.492Z,28.42
2018-02-13T09:23:48.199Z,28.51
2018-02-13T09:26:15.554Z,28.42
2018-02-13T09:28:51.529Z,28.63
2018-02-13T09:31:19.743Z,28.41
2018-02-13T09:33:47.332Z,28.39
2018-02-13T09:36:14.748Z,28.71
2018-02-13T09:38:42.150Z,28.66
2018-02-13T09:41:09.772Z,28.32
2018-02-13T09:43:37.506Z,28.29
2018-02-13T09:46:05.006Z,28.13
2018-02-13T09:48:32.354Z,28.11
2018-02-13T09:51:00.075Z,28.24
2018-02-13T09:53:27.442Z,28.10
2018-02-13T09:55:54.854Z,28.35
2018-02-13T09:58:22.202Z,28.41
2018-02-13T10:00:49.624Z,28.02
2018-02-13T10:03:17.078Z,28.33
2018-02-13T10:05:45.228Z,28.10
2018-02-13T10:08:14.325Z,28.05
2018-02-13T10:10:42.072Z,28.22
2018-02-13T10:13:10.364Z,27.79
2018-02-13T10:15:41.167Z,27.59
2018-02-13T10:18:14.511Z,27.94
2018-02-13T10:20:43.592Z,28.18
2018-02-13T10:23:11.057Z,28.57
2018-02-13T10:25:38.468Z,28.21
2018-02-13T10:28:05.822Z,28.08
2018-02-13T10:30:33.234Z,28.03
2018-02-13T10:33:00.658Z,28.03
2018-02-13T10:35:28.103Z,28.21
2018-02-13T10:37:55.494Z,28.06
2018-02-13T10:40:22.898Z,27.92
2018-02-13T10:42:50.270Z,28.55
2018-02-13T10:45:17.695Z,28.16
2018-02-13T10:47:45.052Z,27.96
2018-02-13T10:50:13.714Z,28.15
2018-02-13T10:52:41.221Z,27.95
2018-02-13T10:55:08.598Z,27.88
2018-02-13T10:57:38.841Z,28.12
2018-02-13T11:00:06.354Z,28.09
2018-02-13T11:02:33.799Z,27.83
2018-02-13T11:05:01.421Z,27.85
2018-02-13T11:07:29.286Z,27.77
2018-02-13T11:09:57.014Z,28.01
2018-02-13T11:12:25.374Z,27.79
2018-02-13T11:14:52.872Z,27.98
2018-02-13T11:17:20.271Z,27.92
2018-02-13T11:19:51.208Z,27.87
2018-02-13T11:22:18.671Z,27.79
2018-02-13T11:24:46.205Z,27.64
2018-02-13T11:27:15.054Z,27.87
2018-02-13T11:29:42.542Z,27.69
2018-02-13T11:32:09.939Z,27.80
2018-02-13T11:34:37.385Z,27.73
2018-02-13T11:37:04.804Z,27.61
2018-02-13T11:39:32.200Z,27.47
2018-02-13T11:41:59.624Z,27.58
2018-02-13T11:44:27.042Z,27.52
2018-02-13T11:46:54.581Z,27.63
2018-02-13T11:49:22.022Z,27.60
2018-02-13T11:51:49.447Z,27.90
2018-02-13T11:54:18.385Z,27.57
2018-02-13T11:56:45.909Z,27.46
2018-02-13T11:59:13.713Z,27.55
2018-02-13T12:01:41.225Z,27.44
2018-02-13T12:04:08.745Z,27.60
2018-02-13T12:06:36.449Z,27.58
2018-02-13T12:09:04.010Z,28.02
2018-02-13T12:11:31.472Z,27.90
2018-02-13T12:13:59.483Z,28.16
2018-02-13T12:16:27.153Z,28.34
2018-02-13T12:18:54.744Z,28.19
2018-02-13T12:21:22.103Z,28.30
2018-02-13T12:23:50.379Z,28.34
2018-02-13T12:26:19.057Z,28.20
2018-02-13T12:28:46.476Z,28.08
2018-02-13T12:31:13.835Z,28.20
2018-02-13T12:33:41.196Z,28.07
2018-02-13T12:36:08.578Z,27.88
2018-02-13T12:38:36.403Z,28.27
2018-02-13T12:41:03.932Z,28.41
2018-02-13T12:43:31.312Z,28.36
2018-02-13T12:45:58.761Z,28.19
2018-02-13T12:48:26.168Z,28.19
2018-02-13T12:50:53.614Z,28.15
2018-02-13T12:53:21.160Z,28.37
2018-02-13T12:55:48.549Z,28.61
2018-02-13T12:58:15.954Z,28.37
2018-02-13T13:00:43.336Z,28.37
2018-02-13T13:03:10.787Z,28.27
2018-02-13T13:05:38.182Z,28.08
2018-02-13T13:08:05.686Z,27.95
2018-02-13T13:10:33.034Z,27.87
2018-02-13T13:13:00.547Z,28.07
2018-02-13T13:15:28.043Z,27.85
2018-02-13T13:17:55.477Z,27.90
2018-02-13T13:20:22.841Z,28.02
2018-02-13T13:22:50.230Z,27.87
2018-02-13T13:25:18.433Z,28.04
2018-02-13T13:27:45.837Z,28.36
2018-02-13T13:30:17.321Z,28.29
2018-02-13T13:32:44.782Z,28.62
2018-02-13T13:35:12.217Z,28.17
2018-02-13T13:37:39.751Z,28.16
2018-02-13T13:40:07.119Z,28.14
2018-02-13T13:42:35.787Z,28.26
2018-02-13T13:47:37.618Z,28.81
2018-02-13T13:50:05.353Z,28.45
2018-02-13T13:52:32.778Z,29.27
2018-02-13T13:55:00.932Z,29.14
2018-02-13T13:57:28.442Z,29.32
2018-02-13T13:59:55.853Z,29.40
2018-02-13T14:02:23.358Z,29.20
2018-02-13T14:04:52.595Z,29.12
2018-02-13T14:07:20.084Z,29.03
2018-02-13T14:09:47.741Z,28.73
2018-02-13T14:12:17.785Z,29.47
2018-02-13T14:14:47.727Z,29.41
2018-02-13T14:17:15.290Z,28.91
2018-02-13T14:19:42.664Z,29.12
2018-02-13T14:22:10.082Z,29.02
2018-02-13T14:24:39.442Z,29.53
2018-02-13T14:27:06.980Z,28.80
2018-02-13T14:29:35.950Z,29.25
2018-02-13T14:32:03.840Z,29.17
2018-02-13T14:34:32.012Z,28.78
2018-02-13T14:36:59.498Z,28.89
2018-02-13T14:39:26.908Z,28.91
2018-02-13T14:41:54.717Z,28.94
2018-02-13T14:44:22.259Z,28.77
2018-02-13T14:46:49.638Z,29.13
2018-02-13T14:49:17.154Z,29.09
2018-02-13T14:51:44.598Z,29.36
2018-02-13T14:54:11.994Z,29.27
2018-02-13T14:56:39.961Z,29.39
2018-02-13T14:59:07.369Z,29.35
2018-02-13T15:01:34.819Z,29.49
2018-02-13T15:04:02.282Z,29.59
2018-02-13T15:06:29.646Z,29.44
2018-02-13T15:08:57.034Z,29.61
2018-02-13T15:11:24.520Z,29.50
2018-02-13T15:13:52.049Z,29.42
2018-02-13T15:16:19.418Z,29.47
2018-02-13T15:18:46.875Z,29.62
2018-02-13T15:21:14.261Z,29.78
2018-02-13T15:23:41.682Z,29.43
2018-02-13T15:26:09.058Z,29.82
2018-02-13T15:28:36.437Z,29.73
2018-02-13T15:31:03.814Z,29.84
2018-02-13T15:33:31.219Z,30.02
2018-02-13T15:35:58.575Z,29.95
2018-02-13T15:38:26.011Z,29.91
2018-02-13T15:40:53.442Z,29.87
2018-02-13T15:43:20.909Z,29.85
2018-02-13T15:45:48.317Z,30.03
2018-02-13T15:48:15.722Z,30.03
2018-02-13T15:50:43.825Z,29.99
2018-02-13T15:53:11.235Z,29.87
2018-02-13T15:55:38.604Z,29.91
2018-02-13T15:58:06.000Z,30.15
2018-02-13T16:00:33.375Z,30.34
2018-02-13T16:03:00.751Z,30.17
2018-02-13T16:05:28.273Z,30.16
2018-02-13T16:07:55.619Z,30.22
2018-02-13T16:10:22.995Z,30.25
2018-02-13T16:12:50.344Z,30.32
2018-02-13T16:15:17.739Z,30.08
2018-02-13T16:17:45.078Z,30.11
2018-02-13T16:20:12.417Z,30.14
2018-02-13T16:22:39.824Z,30.13
2018-02-13T16:25:07.178Z,30.37
2018-02-13T16:27:34.586Z,30.36
2018-02-13T16:30:01.941Z,30.41
2018-02-13T16:32:29.332Z,30.44
2018-02-13T16:34:56.687Z,30.52
2018-02-13T16:37:24.029Z,30.27
2018-02-13T16:39:51.514Z,30.26
2018-02-13T16:42:18.866Z,30.36
2018-02-13T16:44:46.227Z,30.37
2018-02-13T16:47:13.566Z,30.47
2018-02-13T16:49:41.013Z,30.31
2018-02-13T16:52:08.343Z,30.39
2018-02-13T16:54:35.702Z,30.44
2018-02-13T16:57:03.048Z,30.37
2018-02-13T16:59:30.387Z,30.57
2018-02-13T17:01:57.810Z,30.45
2018-02-13T17:04:25.256Z,30.40
2018-02-13T17:06:52.602Z,30.46
2018-02-13T17:09:19.999Z,30.25
2018-02-13T17:11:47.346Z,30.38
2018-02-13T17:14:14.762Z,30.28
2018-02-13T17:16:42.135Z,30.22
2018-02-13T17:19:09.662Z,30.43
2018-02-13T17:21:37.127Z,30.49
2018-02-13T17:24:04.610Z,30.60
2018-02-13T17:26:31.967Z,30.69
2018-02-13T17:28:59.343Z,30.75
2018-02-13T17:31:27.138Z,30.64
2018-02-13T17:33:54.570Z,30.89
2018-02-13T17:36:21.963Z,30.77
2018-02-13T17:38:49.343Z,30.66
2018-02-13T17:41:17.015Z,30.70
2018-02-13T17:43:44.405Z,30.75
2018-02-13T17:46:11.966Z,30.92
2018-02-13T17:48:39.476Z,30.72
2018-02-13T17:51:06.899Z,30.88
2018-02-13T17:53:34.294Z,30.76
2018-02-13T17:56:01.676Z,31.11
2018-02-13T17:58:29.027Z,31.12
2018-02-13T18:00:56.544Z,31.21
2018-02-13T18:03:23.938Z,30.90
2018-02-13T18:05:51.290Z,31.15
2018-02-13T18:08:18.862Z,31.33
2018-02-13T18:10:46.402Z,31.39
2018-02-13T18:13:13.748Z,31.29
2018-02-13T18:15:41.188Z,31.31
2018-02-13T18:18:08.742Z,31.20
2018-02-13T18:20:36.099Z,31.24
2018-02-13T18:23:03.449Z,31.10
2018-02-13T18:25:30.789Z,31.03
2018-02-13T18:27:58.139Z,30.98
2018-02-13T18:30:25.550Z,30.95
2018-02-13T18:32:52.941Z,30.86
2018-02-13T18:35:20.341Z,30.86
2018-02-13T18:37:47.686Z,30.77
2018-02-13T18:40:15.031Z,30.75
2018-02-13T18:42:42.410Z,30.75
2018-02-13T18:45:09.797Z,30.66
2018-02-13T18:47:37.182Z,30.63
2018-02-13T18:50:04.516Z,30.59
2018-02-13T18:54:59.228Z,30.59
2018-02-13T18:57:26.621Z,30.54
2018-02-13T18:59:54.057Z,30.47
2018-02-13T19:02:21.442Z,30.42
2018-02-13T19:04:48.787Z,30.40
2018-02-13T19:07:16.166Z,30.40
2018-02-13T19:09:43.509Z,30.46
2018-02-13T19:12:10.840Z,30.39
2018-02-13T19:14:38.214Z,30.36
2018-02-13T19:19:32.952Z,30.30
2018-02-13T19:22:00.331Z,30.27
2018-02-13T19:24:27.691Z,30.30
2018-02-13T19:26:55.028Z,30.28
2018-02-13T19:29:22.374Z,30.32
2018-02-13T19:31:49.784Z,30.18
2018-02-13T19:34:17.190Z,30.24
2018-02-13T19:36:44.545Z,30.18
2018-02-13T19:39:12.010Z,30.16
2018-02-13T19:41:39.362Z,30.23
2018-02-13T19:44:06.761Z,30.21
2018-02-13T19:46:34.106Z,30.19
2018-02-13T19:49:01.481Z,30.15
2018-02-13T19:51:28.822Z,30.13
2018-02-13T19:53:56.197Z,30.13
2018-02-13T19:56:23.639Z,30.15
2018-02-13T19:58:51.034Z,30.10
2018-02-13T20:01:18.374Z,30.10
2018-02-13T20:03:45.799Z,30.06
2018-02-13T20:06:13.139Z,30.11
2018-02-13T20:08:40.638Z,30.16
2018-02-13T20:11:08.010Z,30.15
2018-02-13T20:13:35.389Z,30.10
2018-02-13T20:16:02.788Z,30.15
2018-02-13T20:18:30.174Z,30.12
2018-02-13T20:20:57.537Z,30.12
2018-02-13T20:23:24.874Z,30.33
2018-02-13T20:25:52.433Z,30.47
2018-02-13T20:28:19.777Z,30.59
2018-02-13T20:30:47.278Z,30.70
2018-02-13T20:33:14.649Z,30.76
2018-02-13T20:35:42.104Z,30.83
2018-02-13T20:38:09.596Z,30.84
2018-02-13T20:40:36.961Z,30.90
2018-02-13T20:43:04.310Z,30.95
2018-02-13T20:45:31.666Z,31.05
2018-02-13T20:47:59.175Z,31.00
2018-02-13T20:50:26.562Z,30.97
2018-02-13T20:52:53.989Z,31.05
2018-02-13T20:55:21.325Z,31.01
2018-02-13T20:57:48.710Z,31.11
2018-02-13T21:00:16.100Z,31.13
2018-02-13T21:02:43.438Z,31.21
2018-02-13T21:05:10.853Z,31.16
2018-02-13T21:07:38.289Z,31.21
2018-02-13T21:10:05.657Z,31.24
2018-02-13T21:12:32.997Z,31.22
2018-02-13T21:15:00.335Z,31.17
2018-02-13T21:17:27.718Z,31.23
2018-02-13T21:19:55.054Z,31.24
2018-02-13T21:22:22.475Z,31.21
2018-02-13T21:24:49.893Z,31.26
2018-02-13T21:27:17.298Z,31.41
2018-02-13T21:29:44.736Z,31.28
2018-02-13T21:32:12.111Z,31.39
2018-02-13T21:34:39.509Z,31.34
2018-02-13T21:37:06.841Z,31.37
2018-02-13T21:39:34.178Z,31.35
2018-02-13T21:42:01.610Z,31.54
2018-02-13T21:44:28.948Z,31.44
2018-02-13T21:46:56.319Z,31.56
2018-02-13T21:49:23.647Z,31.45
2018-02-13T21:51:50.982Z,31.56
2018-02-13T21:54:18.352Z,31.43
2018-02-13T21:56:45.686Z,31.50
2018-02-13T21:59:13.027Z,31.43
2018-02-13T22:01:40.433Z,31.52
2018-02-13T22:04:07.790Z,31.54
2018-02-13T22:06:35.165Z,31.51
2018-02-13T22:09:02.502Z,31.55
2018-02-13T22:11:29.883Z,31.64
2018-02-13T22:13:57.230Z,31.52
2018-02-13T22:16:24.574Z,31.52
2018-02-13T22:18:51.962Z,31.60
2018-02-13T22:21:19.342Z,31.67
2018-02-13T22:23:46.757Z,31.60
2018-02-13T22:26:14.093Z,31.65
2018-02-13T22:28:41.440Z,31.70
2018-02-13T22:31:08.822Z,31.64
2018-02-13T22:33:36.164Z,31.73
2018-02-13T22:36:03.627Z,31.75
2018-02-13T22:38:31.009Z,31.74
2018-02-13T22:40:58.442Z,31.78
2018-02-13T22:43:25.778Z,31.92
2018-02-13T22:45:53.109Z,31.90
2018-02-13T22:48:20.463Z,31.88
2018-02-13T22:50:47.869Z,31.86
2018-02-13T22:53:15.250Z,31.88
2018-02-13T22:55:42.590Z,31.96
2018-02-13T22:58:09.974Z,31.76
2018-02-13T23:00:37.306Z,31.81
2018-02-13T23:03:04.717Z,31.79
2018-02-13T23:05:32.063Z,31.91
2018-02-13T23:07:59.489Z,31.94
2018-02-13T23:10:26.823Z,32.00
2018-02-13T23:12:54.206Z,32.00
2018-02-13T23:15:21.586Z,31.99
2018-02-13T23:17:48.970Z,32.01
2018-02-13T23:20:16.392Z,31.97
2018-02-13T23:22:43.759Z,32.03
2018-02-13T23:25:11.219Z,32.03
2018-02-13T23:27:38.550Z,32.14
2018-02-13T23:30:05.897Z,32.06
2018-02-13T23:32:33.237Z,32.13
2018-02-13T23:35:00.591Z,32.09
2018-02-13T23:37:27.921Z,32.16
2018-02-13T23:39:55.256Z,32.04
2018-02-13T23:42:22.642Z,32.09
2018-02-13T23:44:49.989Z,32.14
2018-02-13T23:47:17.367Z,32.19
2018-02-13T23:49:44.702Z,32.29
2018-02-13T23:52:12.118Z,32.17
2018-02-13T23:54:39.511Z,32.09
2018-02-13T23:57:06.891Z,32.18
2018-02-13T23:59:34.310Z,32.15
